createdAt,value
2023-03-11T00:01:49.195Z,69.60
2023-03-11T00:03:36.158Z,69.32
2023-03-11T00:05:20.189Z,69.34
2023-03-11T00:07:03.967Z,69.82
2023-03-11T00:08:43.060Z,69.96
2023-03-11T00:10:22.156Z,70.16
2023-03-11T00:11:54.180Z,70.14
2023-03-11T00:13:46.188Z,70.18
2023-03-11T00:15:30.214Z,70.24
2023-03-11T00:17:15.958Z,69.99
2023-03-11T00:19:01.598Z,70.56
2023-03-11T00:20:33.939Z,70.43
2023-03-11T00:22:06.169Z,70.48
2023-03-11T00:23:59.184Z,70.87
2023-03-11T00:25:24.647Z,70.67
2023-03-11T00:27:13.527Z,70.90
2023-03-11T00:29:06.176Z,71.15
2023-03-11T00:30:38.357Z,71.14
2023-03-11T00:32:17.797Z,70.99
2023-03-11T00:33:50.095Z,71.13
2023-03-11T00:35:29.139Z,71.30
2023-03-11T00:37:12.916Z,71.55
2023-03-11T00:38:33.466Z,71.31
2023-03-11T00:40:19.648Z,71.46
2023-03-11T00:44:11.914Z,71.75
2023-03-11T00:45:34.532Z,71.79
2023-03-11T00:47:15.757Z,71.77
2023-03-11T00:51:10.055Z,71.64
2023-03-11T00:52:38.174Z,71.95
2023-03-11T00:54:21.617Z,71.88
2023-03-11T00:56:05.349Z,71.67
2023-03-11T00:57:45.241Z,71.95
2023-03-11T00:59:19.725Z,71.54
2023-03-11T01:01:14.196Z,71.72
2023-03-11T01:03:06.877Z,71.76
2023-03-11T01:04:50.507Z,71.51
2023-03-11T01:06:44.738Z,71.88
2023-03-11T01:08:38.186Z,71.46
2023-03-11T01:10:22.043Z,71.69
2023-03-11T01:12:05.701Z,71.62
2023-03-11T01:13:37.349Z,71.46
2023-03-11T01:15:11.852Z,71.50
2023-03-11T01:17:05.162Z,71.59
2023-03-11T01:18:48.867Z,71.63
2023-03-11T01:20:32.761Z,71.23
2023-03-11T01:21:58.482Z,71.62
2023-03-11T01:23:28.936Z,71.63
2023-03-11T01:25:08.654Z,71.42
2023-03-11T01:26:42.492Z,71.61
2023-03-11T01:28:12.840Z,71.86
2023-03-11T01:29:33.484Z,71.83
2023-03-11T01:31:14.235Z,71.71
2023-03-11T01:32:57.977Z,71.74
2023-03-11T01:34:51.149Z,71.62
2023-03-11T01:36:30.630Z,71.79
2023-03-11T01:38:14.178Z,71.93
2023-03-11T01:39:58.127Z,72.30
2023-03-11T01:41:32.766Z,72.04
2023-03-11T01:43:17.379Z,71.97
2023-03-11T01:44:56.812Z,71.81
2023-03-11T01:46:40.630Z,71.83
2023-03-11T01:48:01.046Z,72.16
2023-03-11T01:49:32.953Z,72.20
2023-03-11T01:51:02.806Z,72.91
2023-03-11T01:52:32.054Z,72.98
2023-03-11T01:54:11.910Z,73.35
2023-03-11T01:55:46.451Z,73.09
2023-03-11T01:57:18.691Z,73.43
2023-03-11T01:58:51.618Z,73.53
2023-03-11T02:00:20.282Z,72.94
2023-03-11T02:02:04.573Z,73.32
2023-03-11T02:03:32.194Z,73.13
2023-03-11T02:05:15.987Z,73.57
2023-03-11T02:06:55.475Z,73.47
2023-03-11T02:08:39.006Z,73.67
2023-03-11T02:10:22.769Z,73.57
2023-03-11T02:11:55.169Z,73.44
2023-03-11T02:13:38.093Z,73.19
2023-03-11T02:15:00.998Z,73.27
2023-03-11T02:16:44.609Z,72.88
2023-03-11T02:18:29.483Z,73.52
2023-03-11T02:20:01.846Z,73.39
2023-03-11T02:21:34.282Z,73.84
2023-03-11T02:23:18.995Z,73.83
2023-03-11T02:24:52.180Z,73.68
2023-03-11T02:26:35.731Z,73.67
2023-03-11T02:28:19.416Z,73.45
2023-03-11T02:29:58.724Z,73.54
2023-03-11T02:31:30.688Z,73.58
2023-03-11T02:32:51.640Z,73.56
2023-03-11T02:34:16.220Z,74.02
2023-03-11T02:35:50.673Z,74.07
2023-03-11T02:37:22.739Z,73.90
2023-03-11T02:39:04.018Z,74.24
2023-03-11T02:40:32.247Z,73.99
2023-03-11T02:42:15.881Z,73.70
2023-03-11T02:44:05.686Z,73.79
2023-03-11T02:45:30.938Z,73.75
2023-03-11T02:46:59.253Z,73.76
2023-03-11T02:48:42.895Z,73.77
2023-03-11T02:50:17.524Z,73.76
2023-03-11T02:52:01.418Z,73.74
2023-03-11T02:53:31.213Z,73.97
2023-03-11T02:55:15.260Z,74.17
2023-03-11T02:56:52.590Z,73.76
2023-03-11T02:58:26.650Z,73.81
2023-03-11T03:00:07.537Z,73.64
2023-03-11T03:01:59.489Z,73.69
2023-03-11T03:03:33.992Z,74.16
2023-03-11T03:05:08.255Z,74.43
2023-03-11T03:07:01.169Z,74.17
2023-03-11T03:08:44.673Z,74.35
2023-03-11T03:10:19.059Z,74.11
2023-03-11T03:12:00.886Z,74.06
2023-03-11T03:13:37.113Z,74.15
2023-03-11T03:15:20.832Z,74.43
2023-03-11T03:17:05.332Z,74.35
2023-03-11T03:18:41.439Z,74.66
2023-03-11T03:20:10.926Z,74.47
2023-03-11T03:21:41.207Z,74.46
2023-03-11T03:23:15.944Z,74.33
2023-03-11T03:24:51.036Z,74.42
2023-03-11T03:26:13.769Z,74.37
2023-03-11T03:27:47.217Z,74.30
2023-03-11T03:29:30.723Z,74.63
2023-03-11T03:31:11.937Z,74.13
2023-03-11T03:32:47.281Z,74.56
2023-03-11T03:34:12.341Z,74.73
2023-03-11T03:35:51.840Z,74.72
2023-03-11T03:37:38.638Z,74.49
2023-03-11T03:39:11.086Z,74.53
2023-03-11T03:40:45.815Z,74.76
2023-03-11T03:42:29.314Z,74.51
2023-03-11T03:44:13.020Z,74.94
2023-03-11T03:45:47.472Z,74.92
2023-03-11T03:47:19.510Z,75.23
2023-03-11T03:49:03.465Z,74.97
2023-03-11T03:50:35.147Z,75.21
2023-03-11T03:52:09.263Z,75.01
2023-03-11T03:53:53.128Z,75.38
2023-03-11T03:55:27.400Z,75.43
2023-03-11T03:56:50.806Z,75.78
2023-03-11T03:58:34.612Z,75.78
2023-03-11T04:00:21.610Z,76.09
2023-03-11T04:02:02.340Z,75.96
2023-03-11T04:03:41.489Z,76.48
2023-03-11T04:05:28.285Z,76.56
2023-03-11T04:07:03.711Z,76.25
2023-03-11T04:08:42.767Z,76.44
2023-03-11T04:10:34.840Z,77.14
2023-03-11T04:12:18.898Z,77.37
2023-03-11T04:13:51.562Z,77.59
2023-03-11T04:15:35.406Z,77.88
2023-03-11T04:17:07.644Z,77.82
2023-03-11T04:18:45.131Z,78.16
2023-03-11T04:20:19.993Z,78.65
2023-03-11T04:21:53.395Z,78.24
2023-03-11T04:23:26.298Z,78.14
2023-03-11T04:24:48.226Z,79.13
2023-03-11T04:26:10.818Z,78.90
2023-03-11T04:27:46.127Z,79.24
2023-03-11T04:29:29.913Z,78.88
2023-03-11T04:31:13.849Z,79.05
2023-03-11T04:32:45.979Z,79.28
2023-03-11T04:34:25.921Z,79.41
2023-03-11T04:35:58.635Z,79.53
2023-03-11T04:37:33.012Z,79.70
2023-03-11T04:39:16.524Z,79.83
2023-03-11T04:41:01.174Z,79.53
2023-03-11T04:42:35.190Z,79.98
2023-03-11T04:44:19.322Z,79.75
2023-03-11T04:45:56.354Z,79.93
2023-03-11T04:47:35.264Z,80.38
2023-03-11T04:49:08.139Z,80.34
2023-03-11T04:50:31.907Z,80.48
2023-03-11T04:52:06.482Z,80.50
2023-03-11T04:53:50.030Z,80.36
2023-03-11T04:55:21.601Z,80.56
2023-03-11T04:57:06.589Z,80.81
2023-03-11T04:58:55.515Z,80.41
2023-03-11T05:00:25.765Z,80.45
2023-03-11T05:02:12.480Z,80.58
2023-03-11T05:03:58.816Z,80.98
2023-03-11T05:05:38.701Z,81.22
2023-03-11T05:07:23.750Z,81.42
2023-03-11T05:08:59.057Z,80.88
2023-03-11T05:10:39.038Z,81.74
2023-03-11T05:12:23.203Z,81.54
2023-03-11T05:14:08.432Z,81.85
2023-03-11T05:15:42.843Z,81.90
2023-03-11T05:17:26.546Z,81.78
2023-03-11T05:19:16.692Z,82.03
2023-03-11T05:20:42.226Z,81.78
2023-03-11T05:22:26.022Z,81.43
2023-03-11T05:23:47.049Z,81.86
2023-03-11T05:25:34.921Z,81.62
2023-03-11T05:27:19.135Z,81.98
2023-03-11T05:28:55.833Z,81.74
2023-03-11T05:30:39.877Z,81.75
2023-03-11T05:32:23.736Z,81.86
2023-03-11T05:33:52.131Z,82.40
2023-03-11T05:35:45.221Z,82.05
2023-03-11T05:37:17.510Z,82.26
2023-03-11T05:39:02.008Z,82.28
2023-03-11T05:40:36.846Z,82.21
2023-03-11T05:42:08.948Z,82.60
2023-03-11T05:44:02.268Z,82.76
2023-03-11T05:45:42.153Z,82.62
2023-03-11T05:47:25.702Z,82.52
2023-03-11T05:49:09.698Z,83.08
2023-03-11T05:50:53.950Z,83.06
2023-03-11T05:52:34.887Z,83.01
2023-03-11T05:54:26.007Z,83.06
2023-03-11T05:56:06.169Z,83.07
2023-03-11T05:57:58.203Z,82.82
2023-03-11T05:59:33.403Z,82.46
2023-03-11T06:01:09.737Z,82.44
2023-03-11T06:03:03.218Z,82.57
2023-03-11T06:04:35.438Z,82.57
2023-03-11T06:06:22.912Z,82.54
2023-03-11T06:08:06.851Z,82.69
2023-03-11T06:09:41.633Z,82.90
2023-03-11T06:11:07.282Z,82.61
2023-03-11T06:12:48.091Z,82.57
2023-03-11T06:14:38.049Z,82.77
2023-03-11T06:16:22.192Z,82.52
2023-03-11T06:18:12.210Z,82.60
2023-03-11T06:19:43.062Z,82.38
2023-03-11T06:21:26.481Z,82.45
2023-03-11T06:22:49.519Z,82.52
2023-03-11T06:24:23.586Z,82.61
2023-03-11T06:25:55.895Z,82.49
2023-03-11T06:27:31.214Z,82.48
2023-03-11T06:29:10.886Z,82.48
2023-03-11T06:30:54.504Z,82.62
2023-03-11T06:32:28.812Z,82.67
2023-03-11T06:33:59.601Z,82.64
2023-03-11T06:35:52.204Z,82.66
2023-03-11T06:37:24.306Z,82.46
2023-03-11T06:39:08.368Z,82.63
2023-03-11T06:40:55.893Z,82.59
2023-03-11T06:42:39.613Z,82.52
2023-03-11T06:44:14.925Z,82.60
2023-03-11T06:45:49.186Z,82.72
2023-03-11T06:47:21.915Z,82.43
2023-03-11T06:48:54.077Z,82.50
2023-03-11T06:50:38.174Z,82.63
2023-03-11T06:52:12.602Z,82.24
2023-03-11T06:53:44.547Z,81.89
2023-03-11T06:55:28.411Z,82.18
2023-03-11T06:57:00.619Z,81.96
2023-03-11T06:58:39.717Z,81.82
2023-03-11T07:00:24.025Z,81.90
2023-03-11T07:02:11.347Z,81.80
2023-03-11T07:03:51.196Z,81.67
2023-03-11T07:05:35.758Z,81.56
2023-03-11T07:07:17.296Z,81.37
2023-03-11T07:09:05.000Z,81.39
2023-03-11T07:10:49.246Z,81.65
2023-03-11T07:12:22.867Z,81.73
2023-03-11T07:14:02.666Z,82.01
2023-03-11T07:15:45.215Z,81.96
2023-03-11T07:17:39.245Z,82.02
2023-03-11T07:19:24.465Z,82.07
2023-03-11T07:21:08.153Z,82.32
2023-03-11T07:22:31.626Z,82.20
2023-03-11T07:24:16.317Z,82.19
2023-03-11T07:26:09.087Z,82.14
2023-03-11T07:27:56.141Z,82.20
2023-03-11T07:29:39.287Z,82.13
2023-03-11T07:31:11.708Z,82.09
2023-03-11T07:32:34.113Z,81.83
2023-03-11T07:34:10.540Z,82.10
2023-03-11T07:35:50.092Z,82.15
2023-03-11T07:37:24.565Z,82.33
2023-03-11T07:39:06.141Z,82.27
2023-03-11T07:40:33.373Z,82.32
2023-03-11T07:42:12.697Z,82.30
2023-03-11T07:43:45.692Z,82.00
2023-03-11T07:45:24.461Z,81.54
2023-03-11T07:47:08.707Z,81.31
2023-03-11T07:48:37.839Z,81.36
2023-03-11T07:50:21.497Z,81.36
2023-03-11T07:52:03.298Z,81.84
2023-03-11T07:53:46.432Z,81.58
2023-03-11T07:55:30.557Z,81.89
2023-03-11T07:57:05.103Z,81.64
2023-03-11T07:58:36.676Z,81.39
2023-03-11T08:00:20.303Z,81.43
2023-03-11T08:02:08.284Z,81.31
2023-03-11T08:03:52.189Z,81.15
2023-03-11T08:05:26.723Z,81.69
2023-03-11T08:06:58.984Z,81.74
2023-03-11T08:08:38.105Z,82.01
2023-03-11T08:10:10.400Z,81.97
2023-03-11T08:11:38.309Z,82.11
2023-03-11T08:13:13.821Z,82.28
2023-03-11T08:14:48.339Z,82.29
2023-03-11T08:16:20.548Z,82.19
2023-03-11T08:18:03.962Z,82.03
2023-03-11T08:19:35.984Z,82.04
2023-03-11T08:21:06.751Z,82.30
2023-03-11T08:22:58.141Z,82.15
2023-03-11T08:24:41.901Z,82.27
2023-03-11T08:26:25.811Z,82.33
2023-03-11T08:28:09.362Z,81.84
2023-03-11T08:29:32.489Z,81.93
2023-03-11T08:31:14.227Z,82.09
2023-03-11T08:32:44.288Z,82.38
2023-03-11T08:34:27.927Z,82.20
2023-03-11T08:36:18.607Z,82.25
2023-03-11T08:37:39.371Z,82.29
2023-03-11T08:39:23.728Z,82.04
2023-03-11T08:41:08.501Z,82.13
2023-03-11T08:42:53.468Z,82.11
2023-03-11T08:44:37.156Z,82.28
2023-03-11T08:46:21.861Z,82.51
2023-03-11T08:48:01.713Z,82.29
2023-03-11T08:49:45.919Z,82.54
2023-03-11T08:51:26.129Z,82.38
2023-03-11T08:53:18.477Z,82.48
2023-03-11T08:55:00.149Z,82.35
2023-03-11T08:56:49.621Z,82.36
2023-03-11T08:58:17.931Z,82.53
2023-03-11T08:59:38.381Z,82.42
2023-03-11T09:01:09.254Z,82.39
2023-03-11T09:02:48.638Z,82.43
2023-03-11T09:04:40.820Z,82.54
2023-03-11T09:06:24.758Z,82.54
2023-03-11T09:08:05.725Z,82.70
2023-03-11T09:09:37.706Z,82.70
2023-03-11T09:11:21.929Z,82.87
2023-03-11T09:12:53.912Z,82.56
2023-03-11T09:14:25.395Z,82.56
2023-03-11T09:16:00.812Z,82.29
2023-03-11T09:17:34.991Z,81.67
2023-03-11T09:19:06.266Z,81.50
2023-03-11T09:20:51.220Z,81.46
2023-03-11T09:22:30.924Z,81.65
2023-03-11T09:24:03.529Z,81.37
2023-03-11T09:25:47.157Z,81.22
2023-03-11T09:27:27.876Z,81.38
2023-03-11T09:28:59.750Z,81.29
2023-03-11T09:30:31.975Z,81.61
2023-03-11T09:32:11.094Z,81.58
2023-03-11T09:33:54.922Z,81.50
2023-03-11T09:35:26.963Z,81.61
2023-03-11T09:36:59.232Z,81.44
2023-03-11T09:38:34.013Z,80.83
2023-03-11T09:40:17.730Z,81.07
2023-03-11T09:42:01.517Z,81.38
2023-03-11T09:43:35.326Z,80.96
2023-03-11T09:45:19.175Z,81.07
2023-03-11T09:47:03.348Z,81.18
2023-03-11T09:48:42.462Z,81.54
2023-03-11T09:50:06.284Z,81.86
2023-03-11T09:51:38.238Z,81.32
2023-03-11T09:53:19.633Z,81.43
2023-03-11T09:54:53.851Z,81.28
2023-03-11T09:56:28.278Z,81.50
2023-03-11T09:58:02.702Z,81.73
2023-03-11T09:59:34.802Z,81.52
2023-03-11T10:01:07.175Z,81.16
2023-03-11T10:02:46.832Z,81.34
2023-03-11T10:04:26.025Z,81.53
2023-03-11T10:05:58.414Z,81.62
2023-03-11T10:07:22.801Z,81.43
2023-03-11T10:09:04.285Z,81.44
2023-03-11T10:10:43.001Z,81.32
2023-03-11T10:12:06.095Z,81.40
2023-03-11T10:13:31.379Z,81.61
2023-03-11T10:15:15.598Z,81.35
2023-03-11T10:16:41.493Z,81.17
2023-03-11T10:18:24.870Z,81.07
2023-03-11T10:20:08.915Z,81.38
2023-03-11T10:21:52.241Z,81.46
2023-03-11T10:23:36.421Z,81.63
2023-03-11T10:24:57.345Z,81.80
2023-03-11T10:26:32.104Z,81.46
2023-03-11T10:28:16.631Z,81.35
2023-03-11T10:29:39.072Z,81.30
2023-03-11T10:31:23.131Z,80.89
2023-03-11T10:32:55.687Z,81.05
2023-03-11T10:34:39.231Z,81.21
2023-03-11T10:36:23.892Z,81.44
2023-03-11T10:38:03.803Z,81.40
2023-03-11T10:39:38.735Z,80.94
2023-03-11T10:41:22.315Z,80.81
2023-03-11T10:43:11.355Z,80.53
2023-03-11T10:44:41.251Z,80.35
2023-03-11T10:46:24.940Z,80.34
2023-03-11T10:48:09.143Z,80.32
2023-03-11T10:49:43.683Z,80.86
2023-03-11T10:51:31.488Z,80.77
2023-03-11T10:53:03.870Z,80.67
2023-03-11T10:54:47.510Z,80.73
2023-03-11T10:56:31.410Z,80.61
2023-03-11T10:58:14.934Z,80.84
2023-03-11T10:59:59.209Z,80.96
2023-03-11T11:01:31.135Z,80.70
2023-03-11T11:03:03.026Z,81.01
2023-03-11T11:04:34.525Z,81.12
2023-03-11T11:06:18.554Z,80.95
2023-03-11T11:07:58.111Z,80.70
2023-03-11T11:09:31.720Z,80.25
2023-03-11T11:11:15.386Z,80.17
2023-03-11T11:13:08.259Z,79.98
2023-03-11T11:14:52.158Z,80.15
2023-03-11T11:16:14.613Z,80.06
2023-03-11T11:18:02.918Z,80.21
2023-03-11T11:19:46.633Z,80.28
2023-03-11T11:21:30.491Z,79.96
2023-03-11T11:23:14.845Z,79.77
2023-03-11T11:25:02.601Z,79.46
2023-03-11T11:26:43.130Z,79.89
2023-03-11T11:28:14.875Z,79.81
2023-03-11T11:30:07.173Z,79.71
2023-03-11T11:31:51.273Z,79.75
2023-03-11T11:33:13.951Z,79.70
2023-03-11T11:34:46.371Z,79.76
2023-03-11T11:36:29.890Z,79.59
2023-03-11T11:38:11.347Z,79.50
2023-03-11T11:39:56.268Z,79.34
2023-03-11T11:41:32.557Z,78.37
2023-03-11T11:43:04.088Z,78.52
2023-03-11T11:44:50.337Z,78.74
2023-03-11T11:46:34.024Z,79.07
2023-03-11T11:48:08.640Z,78.77
2023-03-11T11:49:52.061Z,78.75
2023-03-11T11:51:37.667Z,78.76
2023-03-11T11:53:12.833Z,78.43
2023-03-11T11:54:58.735Z,78.09
2023-03-11T11:56:42.141Z,78.45
2023-03-11T11:58:26.190Z,78.78
2023-03-11T12:00:09.543Z,79.20
2023-03-11T12:01:34.718Z,79.09
2023-03-11T12:03:00.506Z,79.07
2023-03-11T12:04:32.387Z,79.23
2023-03-11T12:06:16.345Z,79.00
2023-03-11T12:07:44.327Z,79.32
2023-03-11T12:09:14.898Z,79.34
2023-03-11T12:10:47.035Z,79.18
2023-03-11T12:12:19.272Z,79.72
2023-03-11T12:13:54.309Z,79.76
2023-03-11T12:15:17.019Z,80.13
2023-03-11T12:16:56.286Z,80.00
2023-03-11T12:18:39.645Z,79.86
2023-03-11T12:20:23.869Z,79.75
2023-03-11T12:22:11.703Z,79.95
2023-03-11T12:23:51.876Z,79.90
2023-03-11T12:25:33.350Z,80.04
2023-03-11T12:27:18.163Z,80.28
2023-03-11T12:28:52.863Z,80.54
2023-03-11T12:30:38.162Z,80.74
2023-03-11T12:32:30.344Z,81.03
2023-03-11T12:34:14.480Z,80.82
2023-03-11T12:35:59.210Z,80.88
2023-03-11T12:37:33.254Z,80.62
2023-03-11T12:39:17.319Z,80.49
2023-03-11T12:41:01.671Z,80.67
2023-03-11T12:42:45.243Z,80.66
2023-03-11T12:44:16.538Z,80.32
2023-03-11T12:45:57.437Z,80.29
2023-03-11T12:47:41.109Z,80.06
2023-03-11T12:49:26.215Z,80.56
2023-03-11T12:50:48.730Z,80.16
2023-03-11T12:52:37.288Z,79.89
2023-03-11T12:54:14.163Z,80.21
2023-03-11T12:56:06.474Z,80.21
2023-03-11T12:57:38.467Z,79.77
2023-03-11T12:59:22.632Z,79.42
2023-03-11T13:01:07.338Z,79.37
2023-03-11T13:02:48.937Z,79.02
2023-03-11T13:04:32.753Z,79.41
2023-03-11T13:06:17.105Z,79.57
2023-03-11T13:07:47.557Z,79.30
2023-03-11T13:09:21.493Z,79.62
2023-03-11T13:10:53.669Z,79.59
2023-03-11T13:12:37.045Z,79.88
2023-03-11T13:14:20.897Z,79.14
2023-03-11T13:16:00.492Z,79.02
2023-03-11T13:17:43.715Z,78.62
2023-03-11T13:19:27.224Z,78.24
2023-03-11T13:21:11.496Z,78.02
2023-03-11T13:22:53.864Z,77.83
2023-03-11T13:24:26.896Z,77.35
2023-03-11T13:25:49.499Z,77.44
2023-03-11T13:27:32.578Z,76.86
2023-03-11T13:29:04.809Z,76.36
2023-03-11T13:30:32.788Z,76.12
2023-03-11T13:32:16.754Z,76.21
2023-03-11T13:33:39.419Z,76.20
2023-03-11T13:35:23.993Z,76.34
2023-03-11T13:36:56.374Z,76.09
2023-03-11T13:38:19.539Z,76.29
2023-03-11T13:40:03.573Z,76.08
2023-03-11T13:41:46.907Z,76.04
2023-03-11T13:43:26.223Z,75.84
2023-03-11T13:45:10.823Z,75.78
2023-03-11T13:46:54.811Z,76.10
2023-03-11T13:48:23.450Z,76.57
2023-03-11T13:49:57.650Z,76.59
2023-03-11T13:51:22.842Z,76.61
2023-03-11T13:53:01.974Z,76.88
2023-03-11T13:54:45.190Z,76.85
2023-03-11T13:56:39.203Z,76.90
2023-03-11T13:58:22.749Z,76.79
2023-03-11T14:00:10.583Z,76.85
2023-03-11T14:01:54.206Z,76.39
2023-03-11T14:03:26.496Z,76.10
2023-03-11T14:05:01.259Z,76.02
2023-03-11T14:06:44.086Z,75.82
2023-03-11T14:08:37.183Z,75.31
2023-03-11T14:10:11.553Z,74.48
2023-03-11T14:12:03.612Z,73.90
2023-03-11T14:13:40.675Z,73.87
2023-03-11T14:15:20.058Z,73.89
2023-03-11T14:17:05.425Z,74.16
2023-03-11T14:18:34.891Z,74.11
2023-03-11T14:20:15.656Z,74.37
2023-03-11T14:21:49.069Z,73.87
2023-03-11T14:23:24.417Z,73.36
2023-03-11T14:25:04.399Z,73.10
2023-03-11T14:26:38.551Z,72.62
2023-03-11T14:28:02.220Z,72.50
2023-03-11T14:29:34.373Z,72.65
2023-03-11T14:31:18.299Z,73.02
2023-03-11T14:33:02.311Z,73.68
2023-03-11T14:34:34.492Z,74.09
2023-03-11T14:36:06.624Z,74.49
2023-03-11T14:37:38.200Z,74.52
2023-03-11T14:39:22.310Z,74.77
2023-03-11T14:41:11.205Z,75.03
2023-03-11T14:42:55.112Z,75.38
2023-03-11T14:44:48.345Z,75.95
2023-03-11T14:46:20.503Z,76.00
2023-03-11T14:48:04.551Z,76.42
2023-03-11T14:49:24.700Z,76.60
2023-03-11T14:50:48.589Z,76.46
2023-03-11T14:52:32.467Z,76.37
2023-03-11T14:54:16.393Z,76.36
2023-03-11T14:56:06.073Z,76.19
2023-03-11T14:57:59.158Z,76.43
2023-03-11T14:59:34.385Z,76.72
2023-03-11T15:01:09.133Z,77.03
2023-03-11T15:02:48.289Z,77.42
2023-03-11T15:04:23.079Z,77.57
2023-03-11T15:06:02.714Z,77.68
2023-03-11T15:07:22.606Z,77.61
2023-03-11T15:09:06.378Z,77.59
2023-03-11T15:10:38.038Z,77.58
2023-03-11T15:12:19.364Z,77.52
2023-03-11T15:14:06.805Z,77.26
2023-03-11T15:15:50.314Z,77.39
2023-03-11T15:17:39.899Z,77.79
2023-03-11T15:19:04.261Z,77.66
2023-03-11T15:20:27.255Z,77.74
2023-03-11T15:22:06.452Z,77.48
2023-03-11T15:23:38.184Z,77.50
2023-03-11T15:25:19.825Z,77.78
2023-03-11T15:27:00.855Z,77.61
2023-03-11T15:28:33.641Z,78.02
2023-03-11T15:30:06.436Z,77.86
2023-03-11T15:31:45.741Z,78.08
2023-03-11T15:33:39.291Z,76.95
2023-03-11T15:35:11.730Z,76.45
2023-03-11T15:37:06.440Z,76.58
2023-03-11T15:38:59.161Z,76.45
2023-03-11T15:40:45.688Z,76.00
2023-03-11T15:42:17.907Z,75.71
2023-03-11T15:44:11.252Z,75.74
2023-03-11T15:45:54.901Z,75.77
2023-03-11T15:47:29.515Z,74.98
2023-03-11T15:49:13.586Z,74.75
2023-03-11T15:50:54.149Z,74.50
2023-03-11T15:52:38.077Z,74.09
2023-03-11T15:54:10.527Z,74.32
2023-03-11T15:58:05.227Z,74.31
2023-03-11T15:59:48.872Z,74.42
2023-03-11T16:01:34.105Z,73.89
2023-03-11T16:03:17.556Z,73.40
2023-03-11T16:05:10.422Z,73.47
2023-03-11T16:07:07.063Z,73.03
2023-03-11T16:08:41.181Z,72.58
2023-03-11T16:10:13.419Z,72.60
2023-03-11T16:11:57.322Z,71.90
2023-03-11T16:13:40.796Z,71.80
2023-03-11T16:15:24.021Z,71.71
2023-03-11T16:17:08.077Z,71.63
2023-03-11T16:18:40.009Z,71.48
2023-03-11T16:20:12.916Z,71.06
2023-03-11T16:22:05.214Z,70.66
2023-03-11T16:23:25.805Z,71.04
2023-03-11T16:25:19.240Z,71.04
2023-03-11T16:27:03.116Z,71.40
2023-03-11T16:28:37.460Z,71.15
2023-03-11T16:30:11.832Z,70.79
2023-03-11T16:31:53.471Z,69.95
2023-03-11T16:33:33.033Z,69.52
2023-03-11T16:35:18.573Z,68.41
2023-03-11T16:36:53.501Z,68.54
2023-03-11T16:38:26.121Z,68.79
2023-03-11T16:39:58.680Z,68.59
2023-03-11T16:41:38.002Z,68.03
2023-03-11T16:43:22.126Z,68.81
2023-03-11T16:45:15.122Z,69.40
2023-03-11T16:46:37.746Z,69.39
2023-03-11T16:48:02.839Z,69.51
2023-03-11T16:49:34.480Z,69.51
2023-03-11T16:51:07.174Z,69.38
2023-03-11T16:52:34.823Z,68.68
2023-03-11T16:54:09.704Z,68.67
2023-03-11T16:55:37.485Z,69.03
2023-03-11T16:57:21.869Z,69.18
2023-03-11T16:58:54.191Z,69.24
2023-03-11T17:00:37.475Z,69.75
2023-03-11T17:02:12.391Z,69.86
2023-03-11T17:03:55.552Z,70.23
2023-03-11T17:05:29.463Z,70.37
2023-03-11T17:07:09.127Z,70.08
2023-03-11T17:08:53.445Z,70.08
2023-03-11T17:10:38.561Z,69.64
2023-03-11T17:12:24.353Z,68.81
2023-03-11T17:14:03.299Z,68.44
2023-03-11T17:15:54.220Z,68.60
2023-03-11T17:17:24.740Z,68.75
2023-03-11T17:19:08.788Z,69.39
2023-03-11T17:20:55.335Z,69.04
2023-03-11T17:22:38.943Z,69.43
2023-03-11T17:24:09.146Z,69.16
2023-03-11T17:25:31.228Z,69.03
2023-03-11T17:27:15.430Z,69.10
2023-03-11T17:28:44.990Z,68.63
2023-03-11T17:30:36.451Z,69.34
2023-03-11T17:32:20.872Z,68.78
2023-03-11T17:34:04.677Z,69.02
2023-03-11T17:35:53.356Z,69.42
2023-03-11T17:37:19.235Z,69.63
2023-03-11T17:38:46.529Z,69.96
2023-03-11T17:40:18.765Z,69.99
2023-03-11T17:41:57.306Z,70.19
2023-03-11T17:43:36.627Z,69.81
2023-03-11T17:45:20.618Z,69.84
2023-03-11T17:46:56.022Z,69.66
2023-03-11T17:48:28.078Z,69.60
2023-03-11T17:50:12.282Z,69.41
2023-03-11T17:52:02.019Z,69.56
2023-03-11T17:53:21.950Z,70.11
2023-03-11T17:55:05.212Z,70.08
2023-03-11T17:56:49.002Z,69.99
2023-03-11T17:58:21.204Z,70.07
2023-03-11T18:00:10.138Z,70.15
2023-03-11T18:01:45.308Z,69.92
2023-03-11T18:03:08.992Z,69.80
2023-03-11T18:04:58.299Z,69.55
2023-03-11T18:06:30.116Z,69.28
2023-03-11T18:08:02.353Z,69.14
2023-03-11T18:09:41.646Z,69.52
2023-03-11T18:11:18.788Z,69.80
2023-03-11T18:12:51.437Z,69.55
2023-03-11T18:14:18.840Z,69.56
2023-03-11T18:16:02.343Z,69.92
2023-03-11T18:17:30.000Z,69.66
2023-03-11T18:18:58.078Z,69.56
2023-03-11T18:20:51.147Z,69.72
2023-03-11T18:22:35.457Z,69.81
2023-03-11T18:24:19.950Z,69.69
2023-03-11T18:25:45.061Z,69.92
2023-03-11T18:27:28.188Z,70.12
2023-03-11T18:29:24.251Z,70.07
2023-03-11T18:31:08.636Z,69.93
2023-03-11T18:32:55.381Z,69.74
2023-03-11T18:34:29.996Z,69.66
2023-03-11T18:36:02.725Z,69.58
2023-03-11T18:37:34.477Z,69.42
2023-03-11T18:39:11.553Z,69.99
2023-03-11T18:40:47.615Z,69.89
2023-03-11T18:42:21.955Z,69.70
2023-03-11T18:44:05.592Z,69.96
2023-03-11T18:45:28.088Z,70.19
2023-03-11T18:47:09.182Z,70.04
2023-03-11T18:48:40.735Z,70.27
2023-03-11T18:50:13.282Z,70.44
2023-03-11T18:51:56.996Z,70.36
2023-03-11T18:53:36.396Z,70.52
2023-03-11T18:54:57.724Z,70.12
2023-03-11T18:56:30.473Z,70.25
2023-03-11T18:58:15.520Z,70.24
2023-03-11T19:00:04.248Z,70.34
2023-03-11T19:01:34.600Z,70.63
2023-03-11T19:03:09.845Z,70.88
2023-03-11T19:04:54.360Z,70.75
2023-03-11T19:06:17.350Z,70.87
2023-03-11T19:07:40.281Z,70.91
2023-03-11T19:09:05.970Z,70.62
2023-03-11T19:10:49.838Z,70.80
2023-03-11T19:12:22.873Z,70.90
2023-03-11T19:13:47.682Z,70.81
2023-03-11T19:15:22.531Z,70.98
2023-03-11T19:16:54.873Z,71.16
2023-03-11T19:18:32.805Z,71.09
2023-03-11T19:20:03.529Z,71.32
2023-03-11T19:21:28.021Z,71.43
2023-03-11T19:22:59.712Z,71.64
2023-03-11T19:24:29.788Z,71.32
2023-03-11T19:26:05.385Z,71.15
2023-03-11T19:27:49.526Z,71.13
2023-03-11T19:29:10.816Z,71.29
2023-03-11T19:30:31.318Z,71.26
2023-03-11T19:31:51.746Z,71.34
2023-03-11T19:33:35.521Z,71.91
2023-03-11T19:35:10.176Z,72.09
2023-03-11T19:36:52.409Z,72.10
2023-03-11T19:38:24.704Z,71.91
2023-03-11T19:40:10.996Z,71.99
2023-03-11T19:41:51.033Z,72.21
2023-03-11T19:43:14.157Z,72.05
2023-03-11T19:44:49.367Z,72.14
2023-03-11T19:46:12.731Z,72.26
2023-03-11T19:47:52.225Z,72.06
2023-03-11T19:49:21.356Z,72.29
2023-03-11T19:51:05.270Z,72.67
2023-03-11T19:52:44.558Z,72.58
2023-03-11T19:54:13.114Z,72.43
2023-03-11T19:55:33.584Z,72.47
2023-03-11T19:56:56.736Z,72.53
2023-03-11T19:58:19.178Z,72.32
2023-03-11T20:00:02.697Z,72.32
2023-03-11T20:01:27.579Z,72.44
2023-03-11T20:03:11.841Z,72.28
2023-03-11T20:04:44.090Z,72.50
2023-03-11T20:06:29.402Z,72.73
2023-03-11T20:08:23.197Z,72.80
2023-03-11T20:09:57.255Z,72.51
2023-03-11T20:11:38.127Z,72.16
2023-03-11T20:13:10.496Z,72.29
2023-03-11T20:14:52.945Z,72.46
2023-03-11T20:16:18.645Z,72.22
2023-03-11T20:17:41.691Z,72.35
2023-03-11T20:19:21.686Z,72.67
2023-03-11T20:20:54.738Z,72.76
2023-03-11T20:22:22.622Z,72.69
2023-03-11T20:23:50.467Z,72.76
2023-03-11T20:25:25.172Z,72.53
2023-03-11T20:27:08.873Z,72.66
2023-03-11T20:28:29.413Z,72.23
2023-03-11T20:30:13.422Z,72.38
2023-03-11T20:31:57.247Z,72.07
2023-03-11T20:33:31.678Z,72.60
2023-03-11T20:35:15.570Z,72.53
2023-03-11T20:36:59.593Z,72.96
2023-03-11T20:38:34.591Z,72.71
2023-03-11T20:40:07.293Z,72.76
2023-03-11T20:41:39.221Z,72.66
2023-03-11T20:43:14.204Z,72.35
2023-03-11T20:44:46.148Z,72.23
2023-03-11T20:46:18.170Z,72.01
2023-03-11T20:48:02.011Z,72.27
2023-03-11T20:49:41.580Z,72.72
2023-03-11T20:51:25.671Z,72.66
2023-03-11T20:52:57.633Z,73.00
2023-03-11T20:54:46.202Z,72.85
2023-03-11T20:56:19.215Z,72.82
2023-03-11T20:58:02.802Z,72.61
2023-03-11T20:59:34.596Z,72.87
2023-03-11T21:01:19.149Z,72.67
2023-03-11T21:02:51.764Z,72.96
2023-03-11T21:04:24.597Z,73.06
2023-03-11T21:05:59.355Z,73.31
2023-03-11T21:07:26.851Z,73.29
2023-03-11T21:08:47.398Z,73.23
2023-03-11T21:10:19.496Z,73.31
2023-03-11T21:12:02.968Z,73.33